FIN6DN LGKO-EFHK
Flight info
| Callsign | FIN6DN |
|---|---|
| Flight time | 3h 33m |
| Altitude | 38000 |
| Route | LARKI UL609 MES DCT ATFIR DCT LOMOS DCT KENIN/N0437F370 DCT ETUBO/N0438F380 DCT BOKSU/N0434F370 DCT GUNTA M857 SOKVA DCT ANAMA DCT KEMET DCT KEXLE DCT BEKNA DCT INTOR |
| Aircraft | A321/M-SDE3FGHIRWY/LB1 |
Departure
| Time | 2026-05-06 04:44 |
|---|---|
| Airport | Kos International Airport "Ippokratis" (LGKO) |
Arrival
| Time | 2026-05-06 08:17 |
|---|---|
| Airport | Helsinki Vantaa Airport (EFHK) |
| Time | Latitude | Longitude | Altitude | Speed | Heading |
|---|---|---|---|---|---|
| 2026-05-06 04:13 | 36.80290 | 27.08824 | 414 ft | 0 kts | 58° |
| 2026-05-06 04:35 | 36.80288 | 27.08820 | 420 ft | 2 kts | 58° |
| 2026-05-06 04:35 | 36.80279 | 27.08801 | 410 ft | 3 kts | 62° |
| 2026-05-06 04:35 | 36.80270 | 27.08778 | 411 ft | 3 kts | 70° |
| 2026-05-06 04:36 | 36.80264 | 27.08754 | 411 ft | 3 kts | 84° |
| 2026-05-06 04:36 | 36.80265 | 27.08731 | 413 ft | 3 kts | 117° |
| 2026-05-06 04:36 | 36.80271 | 27.08720 | 412 ft | 0 kts | 147° |
| 2026-05-06 04:36 | 36.80271 | 27.08719 | 412 ft | 0 kts | 147° |
| 2026-05-06 04:38 | 36.80269 | 27.08721 | 420 ft | 2 kts | 147° |
| 2026-05-06 04:38 | 36.80246 | 27.08740 | 415 ft | 5 kts | 147° |
| 2026-05-06 04:39 | 36.80210 | 27.08769 | 418 ft | 7 kts | 147° |
| 2026-05-06 04:39 | 36.80152 | 27.08814 | 415 ft | 13 kts | 148° |
| 2026-05-06 04:39 | 36.80072 | 27.08876 | 416 ft | 14 kts | 148° |
| 2026-05-06 04:39 | 36.79981 | 27.08946 | 413 ft | 16 kts | 148° |
| 2026-05-06 04:40 | 36.79868 | 27.08982 | 409 ft | 18 kts | 178° |
| 2026-05-06 04:40 | 36.79737 | 27.08988 | 414 ft | 20 kts | 178° |
| 2026-05-06 04:40 | 36.79601 | 27.09008 | 417 ft | 20 kts | 157° |
| 2026-05-06 04:40 | 36.79470 | 27.09105 | 412 ft | 23 kts | 148° |
| 2026-05-06 04:41 | 36.79322 | 27.09220 | 411 ft | 27 kts | 148° |
| 2026-05-06 04:41 | 36.79154 | 27.09351 | 404 ft | 29 kts | 148° |
| 2026-05-06 04:41 | 36.78990 | 27.09480 | 397 ft | 27 kts | 148° |
| 2026-05-06 04:41 | 36.78828 | 27.09604 | 393 ft | 29 kts | 148° |
| 2026-05-06 04:42 | 36.78685 | 27.09715 | 393 ft | 20 kts | 148° |
| 2026-05-06 04:42 | 36.78590 | 27.09765 | 390 ft | 12 kts | 186° |
| 2026-05-06 04:42 | 36.78559 | 27.09807 | 388 ft | 3 kts | 18° |
| 2026-05-06 04:42 | 36.78577 | 27.09797 | 389 ft | 0 kts | 329° |
| 2026-05-06 04:43 | 36.78673 | 27.09725 | 393 ft | 50 kts | 329° |
| 2026-05-06 04:43 | 36.79203 | 27.09314 | 406 ft | 126 kts | 327° |
| 2026-05-06 04:43 | 36.80059 | 27.08636 | 757 ft | 151 kts | 328° |
| 2026-05-06 04:44 | 36.80878 | 27.07830 | 1574 ft | 152 kts | 308° |
| 2026-05-06 04:44 | 36.81233 | 27.06493 | 1979 ft | 183 kts | 270° |
| 2026-05-06 04:44 | 36.80979 | 27.04837 | 2353 ft | 205 kts | 266° |
| 2026-05-06 04:44 | 36.81289 | 27.03109 | 2758 ft | 209 kts | 304° |
| 2026-05-06 04:45 | 36.82168 | 27.01575 | 3116 ft | 230 kts | 313° |
| 2026-05-06 04:45 | 36.83225 | 26.99958 | 3624 ft | 249 kts | 313° |
| 2026-05-06 04:45 | 36.84316 | 26.98237 | 4467 ft | 255 kts | 311° |
| 2026-05-06 04:45 | 36.85382 | 26.96446 | 5377 ft | 259 kts | 310° |
| 2026-05-06 04:46 | 36.86420 | 26.94600 | 6317 ft | 261 kts | 308° |
| 2026-05-06 04:46 | 36.87443 | 26.92704 | 7073 ft | 271 kts | 307° |
| 2026-05-06 04:46 | 36.88525 | 26.90656 | 7420 ft | 294 kts | 307° |
| 2026-05-06 04:46 | 36.89668 | 26.88456 | 8010 ft | 307 kts | 306° |
| 2026-05-06 04:47 | 36.90826 | 26.86193 | 8823 ft | 311 kts | 306° |
| 2026-05-06 04:47 | 36.91993 | 26.83896 | 9679 ft | 315 kts | 306° |
| 2026-05-06 04:47 | 36.93168 | 26.81575 | 10490 ft | 318 kts | 306° |
| 2026-05-06 04:47 | 36.94349 | 26.79223 | 11277 ft | 321 kts | 304° |
| 2026-05-06 04:48 | 36.95457 | 26.76787 | 12079 ft | 324 kts | 302° |
| 2026-05-06 04:48 | 36.96636 | 26.74394 | 12859 ft | 323 kts | 313° |
| 2026-05-06 04:48 | 36.98414 | 26.72720 | 13598 ft | 323 kts | 337° |
| 2026-05-06 04:48 | 37.00628 | 26.72257 | 14277 ft | 329 kts | 3° |
| 2026-05-06 04:49 | 37.02818 | 26.73167 | 14930 ft | 342 kts | 28° |
| 2026-05-06 04:49 | 37.04600 | 26.75210 | 15578 ft | 352 kts | 42° |
| 2026-05-06 04:49 | 37.06461 | 26.77159 | 16227 ft | 347 kts | 24° |
| 2026-05-06 04:49 | 37.08714 | 26.78140 | 16883 ft | 342 kts | 6° |
| 2026-05-06 04:50 | 37.11083 | 26.78495 | 17540 ft | 345 kts | 3° |
| 2026-05-06 04:50 | 37.13476 | 26.78877 | 18217 ft | 349 kts | 4° |
| 2026-05-06 04:50 | 37.15893 | 26.79307 | 18811 ft | 352 kts | 5° |
| 2026-05-06 04:50 | 37.18329 | 26.79767 | 19410 ft | 356 kts | 5° |
| 2026-05-06 04:51 | 37.20787 | 26.79873 | 19989 ft | 353 kts | 350° |
| 2026-05-06 04:51 | 37.23137 | 26.79029 | 20574 ft | 353 kts | 333° |
| 2026-05-06 04:51 | 37.25228 | 26.77410 | 21145 ft | 355 kts | 326° |
| 2026-05-06 04:51 | 37.27281 | 26.75670 | 21744 ft | 358 kts | 325° |
| 2026-05-06 04:52 | 37.29345 | 26.73901 | 22344 ft | 361 kts | 325° |
| 2026-05-06 04:52 | 37.31423 | 26.72113 | 22926 ft | 364 kts | 325° |
| 2026-05-06 04:52 | 37.33522 | 26.70304 | 23492 ft | 367 kts | 325° |
| 2026-05-06 04:52 | 37.35639 | 26.68485 | 23973 ft | 370 kts | 325° |
| 2026-05-06 04:53 | 37.37774 | 26.66655 | 24443 ft | 373 kts | 325° |
| 2026-05-06 04:53 | 37.39923 | 26.64808 | 24899 ft | 375 kts | 325° |
| 2026-05-06 04:53 | 37.42082 | 26.62949 | 25355 ft | 378 kts | 325° |
| 2026-05-06 04:53 | 37.44259 | 26.61077 | 25808 ft | 380 kts | 325° |
| 2026-05-06 04:54 | 37.46449 | 26.59196 | 26249 ft | 382 kts | 325° |
| 2026-05-06 04:54 | 37.48649 | 26.57304 | 26684 ft | 385 kts | 325° |
| 2026-05-06 04:54 | 37.50866 | 26.55397 | 27096 ft | 387 kts | 325° |
| 2026-05-06 04:54 | 37.53096 | 26.53476 | 27524 ft | 389 kts | 325° |
| 2026-05-06 04:55 | 37.55337 | 26.51541 | 27946 ft | 392 kts | 325° |
| 2026-05-06 04:55 | 37.57592 | 26.49591 | 28358 ft | 394 kts | 325° |
| 2026-05-06 04:55 | 37.59860 | 26.47628 | 28788 ft | 397 kts | 325° |
| 2026-05-06 04:55 | 37.62143 | 26.45654 | 29186 ft | 399 kts | 325° |
| 2026-05-06 04:56 | 37.64440 | 26.43669 | 29582 ft | 401 kts | 325° |
| 2026-05-06 04:56 | 37.66751 | 26.41672 | 29967 ft | 404 kts | 325° |
| 2026-05-06 04:56 | 37.69075 | 26.39661 | 30316 ft | 406 kts | 325° |
| 2026-05-06 04:56 | 37.71408 | 26.37638 | 30664 ft | 408 kts | 325° |
| 2026-05-06 04:57 | 37.73751 | 26.35607 | 31006 ft | 410 kts | 325° |
| 2026-05-06 04:57 | 37.76115 | 26.33555 | 31267 ft | 414 kts | 325° |
| 2026-05-06 04:57 | 37.78487 | 26.31493 | 31632 ft | 414 kts | 325° |
| 2026-05-06 04:57 | 37.80852 | 26.29436 | 32081 ft | 412 kts | 325° |
| 2026-05-06 04:58 | 37.83204 | 26.27387 | 32558 ft | 409 kts | 325° |
| 2026-05-06 04:58 | 37.85542 | 26.25346 | 33039 ft | 407 kts | 325° |
| 2026-05-06 04:58 | 37.87867 | 26.23316 | 33504 ft | 405 kts | 325° |
| 2026-05-06 04:58 | 37.90182 | 26.21297 | 33965 ft | 403 kts | 325° |
| 2026-05-06 04:59 | 37.92485 | 26.19289 | 34369 ft | 401 kts | 325° |
| 2026-05-06 04:59 | 37.94783 | 26.17286 | 34712 ft | 401 kts | 325° |
| 2026-05-06 04:59 | 37.97080 | 26.15279 | 35033 ft | 401 kts | 325° |
| 2026-05-06 04:59 | 37.99374 | 26.13273 | 35341 ft | 401 kts | 325° |
| 2026-05-06 05:00 | 38.01673 | 26.11260 | 35646 ft | 402 kts | 324° |
| 2026-05-06 05:00 | 38.03974 | 26.09247 | 35942 ft | 402 kts | 324° |
| 2026-05-06 05:00 | 38.06276 | 26.07227 | 36267 ft | 402 kts | 324° |
| 2026-05-06 05:00 | 38.08572 | 26.05206 | 36572 ft | 402 kts | 324° |
| 2026-05-06 05:01 | 38.10872 | 26.03183 | 36867 ft | 402 kts | 324° |
| 2026-05-06 05:01 | 38.13174 | 26.01158 | 37159 ft | 403 kts | 324° |
| 2026-05-06 05:01 | 38.15479 | 25.99127 | 37417 ft | 403 kts | 324° |
| 2026-05-06 05:01 | 38.17787 | 25.97096 | 37672 ft | 404 kts | 324° |
| 2026-05-06 05:02 | 38.20098 | 25.95060 | 37920 ft | 404 kts | 324° |
| 2026-05-06 05:02 | 38.22412 | 25.93016 | 38065 ft | 406 kts | 324° |
| 2026-05-06 05:02 | 38.24739 | 25.90978 | 38089 ft | 406 kts | 327° |
| 2026-05-06 05:03 | 38.29754 | 25.87636 | 38089 ft | 407 kts | 332° |
| 2026-05-06 05:03 | 38.34782 | 25.84406 | 38088 ft | 407 kts | 331° |
| 2026-05-06 05:04 | 38.39871 | 25.81116 | 38096 ft | 408 kts | 332° |
| 2026-05-06 05:04 | 38.44929 | 25.77843 | 38093 ft | 408 kts | 332° |
| 2026-05-06 05:05 | 38.49958 | 25.74591 | 38101 ft | 408 kts | 332° |
| 2026-05-06 05:05 | 38.55062 | 25.71287 | 38106 ft | 409 kts | 332° |
| 2026-05-06 05:06 | 38.60131 | 25.67989 | 38108 ft | 409 kts | 332° |
| 2026-05-06 05:06 | 38.65170 | 25.64716 | 38123 ft | 409 kts | 332° |
| 2026-05-06 05:07 | 38.70245 | 25.61414 | 38102 ft | 409 kts | 332° |
| 2026-05-06 05:07 | 38.75322 | 25.58106 | 38105 ft | 409 kts | 332° |
| 2026-05-06 05:08 | 38.80396 | 25.54792 | 38109 ft | 409 kts | 332° |
| 2026-05-06 05:08 | 38.85469 | 25.51468 | 38106 ft | 409 kts | 332° |
| 2026-05-06 05:09 | 38.90541 | 25.48139 | 38114 ft | 409 kts | 332° |
| 2026-05-06 05:09 | 38.95609 | 25.44816 | 38107 ft | 409 kts | 332° |
| 2026-05-06 05:10 | 39.00675 | 25.41487 | 38102 ft | 409 kts | 332° |
| 2026-05-06 05:10 | 39.05737 | 25.38148 | 38101 ft | 409 kts | 332° |
| 2026-05-06 05:11 | 39.10800 | 25.34804 | 38098 ft | 409 kts | 332° |
| 2026-05-06 05:11 | 39.15864 | 25.31467 | 38104 ft | 409 kts | 332° |
| 2026-05-06 05:12 | 39.20920 | 25.28121 | 38102 ft | 408 kts | 332° |
| 2026-05-06 05:12 | 39.25971 | 25.24771 | 38101 ft | 408 kts | 332° |
| 2026-05-06 05:13 | 39.31024 | 25.21416 | 38098 ft | 408 kts | 332° |
| 2026-05-06 05:13 | 39.36076 | 25.18053 | 38098 ft | 408 kts | 332° |
| 2026-05-06 05:14 | 39.41128 | 25.14699 | 38104 ft | 408 kts | 332° |
| 2026-05-06 05:14 | 39.45322 | 25.11907 | 38099 ft | 408 kts | 332° |
| 2026-05-06 05:15 | 39.50363 | 25.08529 | 38101 ft | 408 kts | 332° |
| 2026-05-06 05:15 | 39.55402 | 25.05154 | 38099 ft | 408 kts | 332° |
| 2026-05-06 05:16 | 39.60445 | 25.01777 | 38099 ft | 408 kts | 332° |
| 2026-05-06 05:16 | 39.65487 | 24.98389 | 38097 ft | 408 kts | 332° |
| 2026-05-06 05:17 | 39.70526 | 24.94991 | 38095 ft | 408 kts | 332° |
| 2026-05-06 05:17 | 39.75566 | 24.91597 | 38094 ft | 408 kts | 332° |
| 2026-05-06 05:18 | 39.80608 | 24.88200 | 38095 ft | 408 kts | 332° |
| 2026-05-06 05:18 | 39.85645 | 24.84800 | 38105 ft | 408 kts | 332° |
| 2026-05-06 05:19 | 39.90683 | 24.81393 | 38104 ft | 408 kts | 332° |
| 2026-05-06 05:19 | 39.95719 | 24.77976 | 38103 ft | 408 kts | 332° |
| 2026-05-06 05:20 | 40.00754 | 24.74548 | 38099 ft | 408 kts | 332° |
| 2026-05-06 05:20 | 40.05797 | 24.71130 | 38099 ft | 408 kts | 332° |
| 2026-05-06 05:21 | 40.10834 | 24.67687 | 38099 ft | 409 kts | 332° |
| 2026-05-06 05:21 | 40.15868 | 24.64240 | 38099 ft | 409 kts | 332° |
| 2026-05-06 05:22 | 40.20909 | 24.60802 | 38096 ft | 409 kts | 332° |
| 2026-05-06 05:22 | 40.25947 | 24.57354 | 38096 ft | 408 kts | 332° |
| 2026-05-06 05:23 | 40.30981 | 24.53898 | 38093 ft | 409 kts | 332° |
| 2026-05-06 05:23 | 40.38527 | 24.48696 | 38100 ft | 408 kts | 332° |
| 2026-05-06 05:24 | 40.43560 | 24.45234 | 38095 ft | 408 kts | 332° |
| 2026-05-06 05:24 | 40.48586 | 24.41763 | 38094 ft | 408 kts | 332° |
| 2026-05-06 05:25 | 40.53574 | 24.38294 | 38075 ft | 409 kts | 331° |
| 2026-05-06 05:25 | 40.58639 | 24.34787 | 38094 ft | 409 kts | 332° |
| 2026-05-06 05:26 | 40.63676 | 24.31309 | 38097 ft | 409 kts | 332° |
| 2026-05-06 05:26 | 40.68674 | 24.27837 | 38097 ft | 409 kts | 331° |
| 2026-05-06 05:27 | 40.73705 | 24.24332 | 38096 ft | 409 kts | 332° |
| 2026-05-06 05:27 | 40.78767 | 24.20794 | 38096 ft | 409 kts | 331° |
| 2026-05-06 05:28 | 40.83763 | 24.17302 | 38099 ft | 409 kts | 332° |
| 2026-05-06 05:28 | 40.88793 | 24.13781 | 38095 ft | 409 kts | 332° |
| 2026-05-06 05:29 | 40.93823 | 24.10264 | 38092 ft | 409 kts | 332° |
| 2026-05-06 05:29 | 40.98864 | 24.06736 | 38080 ft | 410 kts | 331° |
| 2026-05-06 05:30 | 41.03896 | 24.03192 | 38091 ft | 409 kts | 331° |
| 2026-05-06 05:30 | 41.08925 | 23.99646 | 38093 ft | 409 kts | 331° |
| 2026-05-06 05:31 | 41.13953 | 23.96093 | 38098 ft | 410 kts | 331° |
| 2026-05-06 05:31 | 41.18987 | 23.92536 | 38101 ft | 410 kts | 331° |
| 2026-05-06 05:32 | 41.24016 | 23.88961 | 38098 ft | 410 kts | 331° |
| 2026-05-06 05:32 | 41.29046 | 23.85384 | 38111 ft | 410 kts | 331° |
| 2026-05-06 05:33 | 41.34080 | 23.81805 | 38106 ft | 410 kts | 331° |
| 2026-05-06 05:33 | 41.39154 | 23.78324 | 38112 ft | 411 kts | 337° |
| 2026-05-06 05:34 | 41.44707 | 23.76520 | 38105 ft | 413 kts | 349° |
| 2026-05-06 05:34 | 41.50393 | 23.75358 | 38117 ft | 414 kts | 349° |
| 2026-05-06 05:35 | 41.56084 | 23.74174 | 38108 ft | 414 kts | 348° |
| 2026-05-06 05:35 | 41.61774 | 23.72983 | 38111 ft | 414 kts | 348° |
| 2026-05-06 05:36 | 41.67462 | 23.71787 | 38115 ft | 414 kts | 348° |
| 2026-05-06 05:36 | 41.73153 | 23.70591 | 38119 ft | 414 kts | 348° |
| 2026-05-06 05:37 | 41.78842 | 23.69397 | 38115 ft | 414 kts | 348° |
| 2026-05-06 05:37 | 41.84532 | 23.68205 | 38113 ft | 414 kts | 348° |
| 2026-05-06 05:38 | 41.90226 | 23.67006 | 38114 ft | 414 kts | 349° |
| 2026-05-06 05:38 | 41.95925 | 23.65804 | 38118 ft | 415 kts | 349° |
| 2026-05-06 05:39 | 42.01628 | 23.64606 | 38115 ft | 415 kts | 349° |
| 2026-05-06 05:39 | 42.07331 | 23.63406 | 38113 ft | 415 kts | 349° |
| 2026-05-06 05:40 | 42.13033 | 23.62196 | 38121 ft | 415 kts | 349° |
| 2026-05-06 05:40 | 42.18735 | 23.60973 | 38114 ft | 415 kts | 349° |
| 2026-05-06 05:41 | 42.24443 | 23.59754 | 38112 ft | 416 kts | 349° |
| 2026-05-06 05:41 | 42.30155 | 23.58534 | 38112 ft | 416 kts | 349° |
| 2026-05-06 05:42 | 42.35868 | 23.57319 | 38111 ft | 416 kts | 349° |
| 2026-05-06 05:42 | 42.41583 | 23.56102 | 38111 ft | 416 kts | 349° |
| 2026-05-06 05:43 | 42.47295 | 23.54874 | 38108 ft | 416 kts | 348° |
| 2026-05-06 05:43 | 42.53009 | 23.53639 | 38110 ft | 416 kts | 349° |
| 2026-05-06 05:44 | 42.58722 | 23.52409 | 38111 ft | 416 kts | 349° |
| 2026-05-06 05:44 | 42.64440 | 23.51180 | 38103 ft | 416 kts | 348° |
| 2026-05-06 05:45 | 42.70155 | 23.49946 | 38105 ft | 416 kts | 348° |
| 2026-05-06 05:45 | 42.75869 | 23.48707 | 38109 ft | 416 kts | 349° |
| 2026-05-06 05:46 | 42.81588 | 23.47470 | 38104 ft | 416 kts | 349° |
| 2026-05-06 05:46 | 42.87311 | 23.46226 | 38098 ft | 416 kts | 348° |
| 2026-05-06 05:47 | 42.93034 | 23.44972 | 38102 ft | 417 kts | 349° |
| 2026-05-06 05:47 | 42.98761 | 23.43722 | 38097 ft | 417 kts | 349° |
| 2026-05-06 05:48 | 43.04492 | 23.42477 | 38078 ft | 417 kts | 348° |
| 2026-05-06 05:48 | 43.10223 | 23.41227 | 38066 ft | 417 kts | 348° |
| 2026-05-06 05:49 | 43.15920 | 23.39982 | 38074 ft | 418 kts | 349° |
| 2026-05-06 05:49 | 43.21656 | 23.38717 | 38062 ft | 418 kts | 348° |
| 2026-05-06 05:50 | 43.27398 | 23.37455 | 38053 ft | 418 kts | 348° |
| 2026-05-06 05:50 | 43.33138 | 23.36187 | 38060 ft | 418 kts | 349° |
| 2026-05-06 05:51 | 43.38883 | 23.34914 | 38040 ft | 418 kts | 348° |
| 2026-05-06 05:51 | 43.44634 | 23.33637 | 38037 ft | 419 kts | 348° |
| 2026-05-06 05:52 | 43.50391 | 23.32364 | 38038 ft | 419 kts | 348° |
| 2026-05-06 05:52 | 43.56149 | 23.31079 | 38051 ft | 419 kts | 348° |
| 2026-05-06 05:53 | 43.61912 | 23.29787 | 38044 ft | 420 kts | 348° |
| 2026-05-06 05:53 | 43.67676 | 23.28500 | 38048 ft | 420 kts | 349° |
| 2026-05-06 05:54 | 43.73447 | 23.27218 | 38035 ft | 420 kts | 348° |
| 2026-05-06 05:54 | 43.79219 | 23.25923 | 38043 ft | 420 kts | 348° |
| 2026-05-06 05:55 | 43.84992 | 23.24607 | 38044 ft | 421 kts | 348° |
| 2026-05-06 05:55 | 43.90740 | 23.23092 | 38043 ft | 420 kts | 347° |
| 2026-05-06 05:56 | 43.96473 | 23.21481 | 38048 ft | 420 kts | 347° |
| 2026-05-06 05:56 | 44.02215 | 23.19898 | 38038 ft | 421 kts | 347° |
| 2026-05-06 05:57 | 44.07965 | 23.18339 | 38028 ft | 421 kts | 347° |
| 2026-05-06 05:57 | 44.13721 | 23.16786 | 38029 ft | 422 kts | 347° |
| 2026-05-06 05:58 | 44.18550 | 23.15483 | 38052 ft | 422 kts | 347° |
| 2026-05-06 05:58 | 44.24315 | 23.13916 | 38044 ft | 422 kts | 347° |
| 2026-05-06 05:59 | 44.30081 | 23.12341 | 38045 ft | 422 kts | 347° |
| 2026-05-06 05:59 | 44.35846 | 23.10758 | 38042 ft | 422 kts | 347° |
| 2026-05-06 06:00 | 44.41575 | 23.09178 | 38047 ft | 422 kts | 347° |
| 2026-05-06 06:00 | 44.47343 | 23.07597 | 38032 ft | 423 kts | 347° |
| 2026-05-06 06:01 | 44.53119 | 23.06017 | 38034 ft | 423 kts | 347° |
| 2026-05-06 06:01 | 44.58902 | 23.04422 | 38057 ft | 424 kts | 347° |
| 2026-05-06 06:02 | 44.64684 | 23.02819 | 38046 ft | 424 kts | 347° |
| 2026-05-06 06:02 | 44.70474 | 23.01213 | 38046 ft | 424 kts | 347° |
| 2026-05-06 06:03 | 44.76266 | 22.99612 | 38050 ft | 424 kts | 347° |
| 2026-05-06 06:03 | 44.82055 | 22.98012 | 38058 ft | 424 kts | 347° |
| 2026-05-06 06:04 | 44.87844 | 22.96396 | 38054 ft | 424 kts | 347° |
| 2026-05-06 06:04 | 44.93638 | 22.94777 | 38049 ft | 425 kts | 347° |
| 2026-05-06 06:05 | 44.99435 | 22.93157 | 38048 ft | 425 kts | 347° |
| 2026-05-06 06:05 | 45.05234 | 22.91527 | 38057 ft | 425 kts | 347° |
| 2026-05-06 06:06 | 45.11037 | 22.89897 | 38052 ft | 425 kts | 347° |
| 2026-05-06 06:06 | 45.16843 | 22.88267 | 38044 ft | 425 kts | 347° |
| 2026-05-06 06:07 | 45.22648 | 22.86631 | 38036 ft | 425 kts | 347° |
| 2026-05-06 06:07 | 45.28465 | 22.84987 | 38052 ft | 427 kts | 347° |
| 2026-05-06 06:08 | 45.34291 | 22.83340 | 38053 ft | 427 kts | 347° |
| 2026-05-06 06:08 | 45.40122 | 22.81679 | 38052 ft | 428 kts | 347° |
| 2026-05-06 06:09 | 45.45951 | 22.80010 | 38053 ft | 427 kts | 347° |
| 2026-05-06 06:09 | 45.51786 | 22.78352 | 38058 ft | 428 kts | 347° |
| 2026-05-06 06:10 | 45.57625 | 22.76692 | 38048 ft | 428 kts | 347° |
| 2026-05-06 06:10 | 45.63464 | 22.75020 | 38049 ft | 428 kts | 347° |
| 2026-05-06 06:11 | 45.69310 | 22.73346 | 38039 ft | 428 kts | 347° |
| 2026-05-06 06:11 | 45.75157 | 22.71670 | 38053 ft | 429 kts | 347° |
| 2026-05-06 06:12 | 45.81008 | 22.69978 | 38049 ft | 429 kts | 347° |
| 2026-05-06 06:12 | 45.86861 | 22.68277 | 38045 ft | 429 kts | 347° |
| 2026-05-06 06:13 | 45.92718 | 22.66589 | 38041 ft | 429 kts | 347° |
| 2026-05-06 06:13 | 45.98578 | 22.64898 | 38044 ft | 430 kts | 347° |
| 2026-05-06 06:14 | 46.04442 | 22.63193 | 38042 ft | 430 kts | 346° |
| 2026-05-06 06:14 | 46.10307 | 22.61477 | 38043 ft | 430 kts | 347° |
| 2026-05-06 06:15 | 46.16173 | 22.59764 | 38048 ft | 430 kts | 347° |
| 2026-05-06 06:15 | 46.22049 | 22.58047 | 38039 ft | 431 kts | 347° |
| 2026-05-06 06:16 | 46.27934 | 22.56323 | 38039 ft | 432 kts | 347° |
| 2026-05-06 06:16 | 46.33821 | 22.54588 | 38031 ft | 432 kts | 346° |
| 2026-05-06 06:17 | 46.39710 | 22.52854 | 38039 ft | 432 kts | 347° |
| 2026-05-06 06:17 | 46.45601 | 22.51119 | 38031 ft | 432 kts | 347° |
| 2026-05-06 06:18 | 46.51494 | 22.49375 | 38025 ft | 432 kts | 347° |
| 2026-05-06 06:18 | 46.57393 | 22.47625 | 38023 ft | 433 kts | 347° |
| 2026-05-06 06:19 | 46.63296 | 22.45868 | 38024 ft | 433 kts | 347° |
| 2026-05-06 06:19 | 46.69206 | 22.44123 | 38016 ft | 433 kts | 346° |
| 2026-05-06 06:20 | 46.75116 | 22.42359 | 38012 ft | 434 kts | 346° |
| 2026-05-06 06:20 | 46.81031 | 22.40583 | 38015 ft | 434 kts | 346° |
| 2026-05-06 06:21 | 46.86953 | 22.38808 | 38023 ft | 435 kts | 347° |
| 2026-05-06 06:21 | 46.92887 | 22.37035 | 38020 ft | 435 kts | 346° |
| 2026-05-06 06:22 | 46.98818 | 22.35248 | 38017 ft | 435 kts | 346° |
| 2026-05-06 06:22 | 47.04750 | 22.33459 | 38013 ft | 435 kts | 346° |
| 2026-05-06 06:23 | 47.10684 | 22.31670 | 38011 ft | 436 kts | 346° |
| 2026-05-06 06:23 | 47.16631 | 22.29873 | 38003 ft | 436 kts | 346° |
| 2026-05-06 06:24 | 47.22581 | 22.28062 | 38002 ft | 437 kts | 346° |
| 2026-05-06 06:24 | 47.28537 | 22.26238 | 37998 ft | 437 kts | 346° |
| 2026-05-06 06:25 | 47.34493 | 22.24415 | 38006 ft | 437 kts | 346° |
| 2026-05-06 06:26 | 47.43429 | 22.21685 | 37999 ft | 437 kts | 346° |
| 2026-05-06 06:26 | 47.49387 | 22.19861 | 37990 ft | 437 kts | 346° |
| 2026-05-06 06:27 | 47.55348 | 22.18022 | 37983 ft | 438 kts | 346° |
| 2026-05-06 06:27 | 47.61317 | 22.16179 | 37984 ft | 438 kts | 346° |
| 2026-05-06 06:28 | 47.67290 | 22.14327 | 37983 ft | 439 kts | 346° |
| 2026-05-06 06:28 | 47.73267 | 22.12467 | 37983 ft | 439 kts | 346° |
| 2026-05-06 06:29 | 47.79250 | 22.10620 | 37980 ft | 439 kts | 346° |
| 2026-05-06 06:29 | 47.85238 | 22.08768 | 37986 ft | 440 kts | 346° |
| 2026-05-06 06:30 | 47.91230 | 22.06895 | 37978 ft | 440 kts | 346° |
| 2026-05-06 06:30 | 47.97234 | 22.05022 | 37976 ft | 441 kts | 346° |
| 2026-05-06 06:31 | 48.03247 | 22.03136 | 37981 ft | 442 kts | 346° |
| 2026-05-06 06:31 | 48.09265 | 22.01239 | 37990 ft | 442 kts | 346° |
| 2026-05-06 06:32 | 48.15289 | 21.99340 | 38160 ft | 442 kts | 346° |
| 2026-05-06 06:32 | 48.18295 | 21.98391 | 38498 ft | 441 kts | 346° |
| 2026-05-06 06:32 | 48.21299 | 21.97440 | 38773 ft | 441 kts | 346° |
| 2026-05-06 06:32 | 48.24261 | 21.96505 | 38929 ft | 442 kts | 346° |
| 2026-05-06 06:33 | 48.27308 | 21.95544 | 38961 ft | 442 kts | 346° |
| 2026-05-06 06:33 | 48.33337 | 21.93658 | 38960 ft | 444 kts | 348° |
| 2026-05-06 06:34 | 48.39521 | 21.93482 | 38958 ft | 449 kts | 6° |
| 2026-05-06 06:34 | 48.45664 | 21.94914 | 38967 ft | 450 kts | 6° |
| 2026-05-06 06:35 | 48.51850 | 21.96362 | 38973 ft | 450 kts | 7° |
| 2026-05-06 06:35 | 48.58038 | 21.97813 | 38976 ft | 451 kts | 7° |
| 2026-05-06 06:36 | 48.64238 | 21.99257 | 38978 ft | 451 kts | 7° |
| 2026-05-06 06:36 | 48.70440 | 22.00705 | 38979 ft | 451 kts | 7° |
| 2026-05-06 06:37 | 48.76640 | 22.02160 | 38987 ft | 451 kts | 7° |
| 2026-05-06 06:37 | 48.82837 | 22.03609 | 38981 ft | 451 kts | 6° |
| 2026-05-06 06:38 | 48.89041 | 22.05067 | 38968 ft | 451 kts | 6° |
| 2026-05-06 06:38 | 48.95246 | 22.06534 | 38959 ft | 451 kts | 5° |
| 2026-05-06 06:39 | 49.01457 | 22.08001 | 38951 ft | 452 kts | 6° |
| 2026-05-06 06:39 | 49.07667 | 22.09479 | 38956 ft | 451 kts | 7° |
| 2026-05-06 06:40 | 49.13874 | 22.10959 | 38952 ft | 451 kts | 8° |
| 2026-05-06 06:40 | 49.20078 | 22.12443 | 38958 ft | 451 kts | 7° |
| 2026-05-06 06:41 | 49.26289 | 22.13926 | 38956 ft | 452 kts | 7° |
| 2026-05-06 06:41 | 49.31457 | 22.15165 | 38936 ft | 452 kts | 6° |
| 2026-05-06 06:42 | 49.37680 | 22.16655 | 38919 ft | 453 kts | 5° |
| 2026-05-06 06:42 | 49.43906 | 22.18160 | 38931 ft | 454 kts | 7° |
| 2026-05-06 06:43 | 49.50147 | 22.19672 | 38917 ft | 454 kts | 7° |
| 2026-05-06 06:43 | 49.56396 | 22.21186 | 38916 ft | 455 kts | 7° |
| 2026-05-06 06:44 | 49.62652 | 22.22706 | 38923 ft | 455 kts | 7° |
| 2026-05-06 06:44 | 49.68913 | 22.24224 | 38905 ft | 455 kts | 7° |
| 2026-05-06 06:45 | 49.75174 | 22.25749 | 38906 ft | 456 kts | 7° |
| 2026-05-06 06:45 | 49.81438 | 22.27279 | 38897 ft | 456 kts | 7° |
| 2026-05-06 06:46 | 49.87706 | 22.28826 | 38903 ft | 456 kts | 7° |
| 2026-05-06 06:46 | 49.93972 | 22.30372 | 38881 ft | 456 kts | 7° |
| 2026-05-06 06:47 | 50.00238 | 22.31925 | 38874 ft | 456 kts | 7° |
| 2026-05-06 06:47 | 50.06499 | 22.33474 | 38870 ft | 456 kts | 7° |
| 2026-05-06 06:48 | 50.12764 | 22.35012 | 38877 ft | 456 kts | 7° |
| 2026-05-06 06:48 | 50.19028 | 22.36567 | 38872 ft | 456 kts | 7° |
| 2026-05-06 06:49 | 50.25290 | 22.38134 | 38872 ft | 456 kts | 7° |
| 2026-05-06 06:49 | 50.31558 | 22.39706 | 38874 ft | 456 kts | 7° |
| 2026-05-06 06:50 | 50.37828 | 22.41279 | 38878 ft | 457 kts | 7° |
| 2026-05-06 06:50 | 50.44105 | 22.42864 | 38875 ft | 457 kts | 7° |
| 2026-05-06 06:51 | 50.50387 | 22.44449 | 38875 ft | 457 kts | 7° |
| 2026-05-06 06:51 | 50.56672 | 22.46041 | 38869 ft | 457 kts | 7° |
| 2026-05-06 06:52 | 50.62957 | 22.47634 | 38865 ft | 457 kts | 7° |
| 2026-05-06 06:52 | 50.69241 | 22.49218 | 38874 ft | 457 kts | 6° |
| 2026-05-06 06:53 | 50.75526 | 22.50820 | 38867 ft | 457 kts | 7° |
| 2026-05-06 06:53 | 50.81810 | 22.52424 | 38873 ft | 457 kts | 6° |
| 2026-05-06 06:54 | 50.88091 | 22.54039 | 38854 ft | 457 kts | 7° |
| 2026-05-06 06:54 | 50.94372 | 22.55658 | 38848 ft | 457 kts | 6° |
| 2026-05-06 06:55 | 51.00653 | 22.57272 | 38842 ft | 457 kts | 7° |
| 2026-05-06 06:55 | 51.06891 | 22.58881 | 38844 ft | 457 kts | 7° |
| 2026-05-06 06:56 | 51.13212 | 22.60518 | 38840 ft | 457 kts | 7° |
| 2026-05-06 06:56 | 51.19449 | 22.62136 | 38835 ft | 457 kts | 7° |
| 2026-05-06 06:57 | 51.25769 | 22.63783 | 38830 ft | 457 kts | 7° |
| 2026-05-06 06:57 | 51.32004 | 22.65411 | 38831 ft | 457 kts | 7° |
| 2026-05-06 06:58 | 51.38324 | 22.67057 | 38834 ft | 457 kts | 7° |
| 2026-05-06 06:58 | 51.44558 | 22.68702 | 38834 ft | 457 kts | 7° |
| 2026-05-06 06:59 | 51.50836 | 22.70361 | 38834 ft | 457 kts | 7° |
| 2026-05-06 06:59 | 51.57114 | 22.72022 | 38831 ft | 457 kts | 7° |
| 2026-05-06 07:00 | 51.63397 | 22.73684 | 38828 ft | 458 kts | 7° |
| 2026-05-06 07:00 | 51.69679 | 22.75349 | 38828 ft | 458 kts | 7° |
| 2026-05-06 07:01 | 51.75964 | 22.77024 | 38843 ft | 458 kts | 7° |
| 2026-05-06 07:01 | 51.82251 | 22.78707 | 38836 ft | 458 kts | 7° |
| 2026-05-06 07:02 | 51.88541 | 22.80398 | 38829 ft | 458 kts | 7° |
| 2026-05-06 07:02 | 51.94834 | 22.82087 | 38822 ft | 458 kts | 7° |
| 2026-05-06 07:03 | 52.01126 | 22.83773 | 38832 ft | 458 kts | 7° |
| 2026-05-06 07:03 | 52.07420 | 22.85472 | 38827 ft | 459 kts | 7° |
| 2026-05-06 07:04 | 52.13716 | 22.87185 | 38825 ft | 459 kts | 7° |
| 2026-05-06 07:04 | 52.20016 | 22.88893 | 38829 ft | 459 kts | 7° |
| 2026-05-06 07:05 | 52.26316 | 22.90612 | 38830 ft | 459 kts | 7° |
| 2026-05-06 07:05 | 52.32619 | 22.92341 | 38831 ft | 459 kts | 7° |
| 2026-05-06 07:06 | 52.38927 | 22.94065 | 38829 ft | 460 kts | 7° |
| 2026-05-06 07:06 | 52.45234 | 22.95789 | 38837 ft | 460 kts | 7° |
| 2026-05-06 07:07 | 52.51579 | 22.96490 | 38843 ft | 457 kts | 359° |
| 2026-05-06 07:07 | 52.57930 | 22.96804 | 38833 ft | 457 kts | 359° |
| 2026-05-06 07:08 | 52.64287 | 22.97132 | 38832 ft | 457 kts | 359° |
| 2026-05-06 07:08 | 52.70645 | 22.97461 | 38837 ft | 457 kts | 359° |
| 2026-05-06 07:09 | 52.77006 | 22.97780 | 38841 ft | 457 kts | 359° |
| 2026-05-06 07:09 | 52.83371 | 22.98105 | 38841 ft | 458 kts | 359° |
| 2026-05-06 07:10 | 52.89737 | 22.98436 | 38841 ft | 458 kts | 359° |
| 2026-05-06 07:10 | 52.96106 | 22.98765 | 38841 ft | 458 kts | 359° |
| 2026-05-06 07:11 | 53.02475 | 22.99095 | 38852 ft | 458 kts | 359° |
| 2026-05-06 07:11 | 53.08846 | 22.99424 | 38846 ft | 458 kts | 359° |
| 2026-05-06 07:12 | 53.15222 | 22.99755 | 38850 ft | 458 kts | 359° |
| 2026-05-06 07:12 | 53.21598 | 23.00085 | 38845 ft | 459 kts | 359° |
| 2026-05-06 07:13 | 53.27977 | 23.00418 | 38860 ft | 459 kts | 359° |
| 2026-05-06 07:13 | 53.34359 | 23.00755 | 38859 ft | 459 kts | 359° |
| 2026-05-06 07:14 | 53.40745 | 23.01086 | 38848 ft | 459 kts | 359° |
| 2026-05-06 07:14 | 53.47132 | 23.01426 | 38857 ft | 459 kts | 359° |
| 2026-05-06 07:15 | 53.53520 | 23.01760 | 38847 ft | 459 kts | 358° |
| 2026-05-06 07:15 | 53.59912 | 23.02090 | 38867 ft | 459 kts | 358° |
| 2026-05-06 07:16 | 53.66304 | 23.02431 | 38866 ft | 460 kts | 358° |
| 2026-05-06 07:16 | 53.72695 | 23.02777 | 38867 ft | 460 kts | 358° |
| 2026-05-06 07:17 | 53.79086 | 23.03121 | 38892 ft | 460 kts | 358° |
| 2026-05-06 07:17 | 53.85437 | 23.03463 | 38881 ft | 460 kts | 358° |
| 2026-05-06 07:18 | 53.91831 | 23.03807 | 38889 ft | 460 kts | 358° |
| 2026-05-06 07:18 | 53.98227 | 23.04159 | 38887 ft | 460 kts | 358° |
| 2026-05-06 07:19 | 54.04621 | 23.04504 | 38886 ft | 460 kts | 358° |
| 2026-05-06 07:19 | 54.11020 | 23.04849 | 38903 ft | 460 kts | 358° |
| 2026-05-06 07:20 | 54.17422 | 23.05202 | 38894 ft | 460 kts | 358° |
| 2026-05-06 07:20 | 54.23823 | 23.05548 | 38906 ft | 460 kts | 358° |
| 2026-05-06 07:21 | 54.30229 | 23.05948 | 38910 ft | 462 kts | 1° |
| 2026-05-06 07:21 | 54.36597 | 23.07787 | 38924 ft | 465 kts | 7° |
| 2026-05-06 07:22 | 54.42962 | 23.09843 | 38920 ft | 466 kts | 7° |
| 2026-05-06 07:22 | 54.49334 | 23.11889 | 38917 ft | 466 kts | 7° |
| 2026-05-06 07:23 | 54.55711 | 23.13946 | 38935 ft | 467 kts | 7° |
| 2026-05-06 07:23 | 54.62096 | 23.16016 | 38951 ft | 467 kts | 6° |
| 2026-05-06 07:24 | 54.68493 | 23.18092 | 38943 ft | 468 kts | 7° |
| 2026-05-06 07:24 | 54.74895 | 23.20193 | 38944 ft | 469 kts | 7° |
| 2026-05-06 07:25 | 54.81305 | 23.22310 | 38945 ft | 469 kts | 7° |
| 2026-05-06 07:25 | 54.87716 | 23.24422 | 38959 ft | 469 kts | 6° |
| 2026-05-06 07:26 | 54.93048 | 23.26175 | 38963 ft | 469 kts | 6° |
| 2026-05-06 07:26 | 54.99470 | 23.28291 | 38959 ft | 470 kts | 7° |
| 2026-05-06 07:27 | 55.05889 | 23.30434 | 38961 ft | 470 kts | 7° |
| 2026-05-06 07:27 | 55.12314 | 23.32570 | 38962 ft | 470 kts | 6° |
| 2026-05-06 07:28 | 55.18739 | 23.34707 | 38983 ft | 470 kts | 6° |
| 2026-05-06 07:28 | 55.28372 | 23.37935 | 38982 ft | 470 kts | 6° |
| 2026-05-06 07:29 | 55.34793 | 23.40107 | 38984 ft | 470 kts | 6° |
| 2026-05-06 07:29 | 55.41216 | 23.42284 | 38999 ft | 470 kts | 6° |
| 2026-05-06 07:30 | 55.47639 | 23.44456 | 38996 ft | 470 kts | 6° |
| 2026-05-06 07:30 | 55.54065 | 23.46633 | 39013 ft | 470 kts | 6° |
| 2026-05-06 07:31 | 55.60497 | 23.48824 | 39006 ft | 471 kts | 6° |
| 2026-05-06 07:31 | 55.66937 | 23.51033 | 39024 ft | 472 kts | 6° |
| 2026-05-06 07:32 | 55.73388 | 23.53246 | 39009 ft | 472 kts | 6° |
| 2026-05-06 07:32 | 55.79847 | 23.55468 | 39009 ft | 473 kts | 6° |
| 2026-05-06 07:33 | 55.86311 | 23.57709 | 39004 ft | 474 kts | 6° |
| 2026-05-06 07:33 | 55.92782 | 23.59968 | 39035 ft | 474 kts | 6° |
| 2026-05-06 07:34 | 55.99258 | 23.62216 | 39027 ft | 474 kts | 6° |
| 2026-05-06 07:34 | 56.05698 | 23.64457 | 39019 ft | 475 kts | 6° |
| 2026-05-06 07:35 | 56.12184 | 23.66731 | 39017 ft | 475 kts | 6° |
| 2026-05-06 07:35 | 56.18670 | 23.69018 | 39025 ft | 475 kts | 6° |
| 2026-05-06 07:36 | 56.25205 | 23.71333 | 39032 ft | 475 kts | 6° |
| 2026-05-06 07:36 | 56.31691 | 23.73633 | 39027 ft | 475 kts | 6° |
| 2026-05-06 07:37 | 56.38138 | 23.75924 | 39027 ft | 475 kts | 6° |
| 2026-05-06 07:37 | 56.44617 | 23.78412 | 39025 ft | 476 kts | 7° |
| 2026-05-06 07:38 | 56.51086 | 23.81045 | 39022 ft | 477 kts | 7° |
| 2026-05-06 07:38 | 56.57553 | 23.83688 | 39022 ft | 476 kts | 7° |
| 2026-05-06 07:39 | 56.64031 | 23.86221 | 39040 ft | 476 kts | 6° |
| 2026-05-06 07:39 | 56.70521 | 23.88567 | 39029 ft | 476 kts | 5° |
| 2026-05-06 07:40 | 56.77017 | 23.90902 | 39034 ft | 476 kts | 5° |
| 2026-05-06 07:40 | 56.83510 | 23.93297 | 39026 ft | 476 kts | 5° |
| 2026-05-06 07:41 | 56.90005 | 23.95742 | 39022 ft | 477 kts | 6° |
| 2026-05-06 07:41 | 56.96508 | 23.98106 | 39022 ft | 476 kts | 4° |
| 2026-05-06 07:42 | 57.03021 | 24.00231 | 39039 ft | 476 kts | 4° |
| 2026-05-06 07:42 | 57.09544 | 24.02328 | 39043 ft | 476 kts | 4° |
| 2026-05-06 07:43 | 57.16068 | 24.04509 | 39034 ft | 477 kts | 4° |
| 2026-05-06 07:43 | 57.22590 | 24.06729 | 39040 ft | 477 kts | 4° |
| 2026-05-06 07:44 | 57.29111 | 24.08955 | 39063 ft | 477 kts | 4° |
| 2026-05-06 07:44 | 57.35643 | 24.11172 | 39046 ft | 477 kts | 4° |
| 2026-05-06 07:45 | 57.42174 | 24.13392 | 39046 ft | 478 kts | 4° |
| 2026-05-06 07:45 | 57.48713 | 24.15627 | 39045 ft | 478 kts | 4° |
| 2026-05-06 07:46 | 57.55254 | 24.17870 | 39047 ft | 478 kts | 4° |
| 2026-05-06 07:46 | 57.61795 | 24.20124 | 39062 ft | 478 kts | 5° |
| 2026-05-06 07:47 | 57.68338 | 24.22399 | 39058 ft | 478 kts | 5° |
| 2026-05-06 07:47 | 57.74883 | 24.24671 | 39049 ft | 478 kts | 5° |
| 2026-05-06 07:48 | 57.81430 | 24.26942 | 39046 ft | 478 kts | 5° |
| 2026-05-06 07:48 | 57.87979 | 24.29235 | 39069 ft | 479 kts | 5° |
| 2026-05-06 07:49 | 57.94525 | 24.31526 | 39057 ft | 478 kts | 4° |
| 2026-05-06 07:49 | 58.01076 | 24.33764 | 39053 ft | 478 kts | 4° |
| 2026-05-06 07:50 | 58.07630 | 24.35980 | 39049 ft | 478 kts | 4° |
| 2026-05-06 07:50 | 58.14181 | 24.38230 | 39069 ft | 479 kts | 4° |
| 2026-05-06 07:51 | 58.20732 | 24.40520 | 39056 ft | 479 kts | 5° |
| 2026-05-06 07:51 | 58.27290 | 24.42821 | 39053 ft | 479 kts | 4° |
| 2026-05-06 07:52 | 58.33850 | 24.45108 | 39048 ft | 479 kts | 4° |
| 2026-05-06 07:52 | 58.40412 | 24.47412 | 39080 ft | 480 kts | 4° |
| 2026-05-06 07:53 | 58.46969 | 24.49713 | 39047 ft | 479 kts | 4° |
| 2026-05-06 07:53 | 58.53519 | 24.52033 | 39045 ft | 479 kts | 4° |
| 2026-05-06 07:54 | 58.60076 | 24.54367 | 39044 ft | 479 kts | 4° |
| 2026-05-06 07:54 | 58.66633 | 24.56711 | 39059 ft | 480 kts | 4° |
| 2026-05-06 07:55 | 58.73199 | 24.59046 | 39038 ft | 479 kts | 4° |
| 2026-05-06 07:55 | 58.79757 | 24.61394 | 39029 ft | 480 kts | 4° |
| 2026-05-06 07:56 | 58.86327 | 24.63756 | 38728 ft | 480 kts | 4° |
| 2026-05-06 07:56 | 58.89607 | 24.64940 | 38181 ft | 480 kts | 4° |
| 2026-05-06 07:56 | 58.92890 | 24.66124 | 37559 ft | 479 kts | 3° |
| 2026-05-06 07:57 | 58.96166 | 24.67308 | 36921 ft | 479 kts | 2° |
| 2026-05-06 07:57 | 58.99451 | 24.68500 | 36146 ft | 482 kts | 2° |
| 2026-05-06 07:57 | 59.02755 | 24.69699 | 35346 ft | 484 kts | 2° |
| 2026-05-06 07:57 | 59.06073 | 24.70905 | 34629 ft | 484 kts | 1° |
| 2026-05-06 07:58 | 59.09385 | 24.72115 | 33769 ft | 486 kts | 0° |
| 2026-05-06 07:58 | 59.12707 | 24.73333 | 32883 ft | 485 kts | 0° |
| 2026-05-06 07:58 | 59.16025 | 24.74555 | 31963 ft | 485 kts | 360° |
| 2026-05-06 07:58 | 59.19344 | 24.75776 | 31001 ft | 486 kts | 359° |
| 2026-05-06 07:59 | 59.22674 | 24.76997 | 30017 ft | 487 kts | 359° |
| 2026-05-06 07:59 | 59.26012 | 24.78225 | 28815 ft | 489 kts | 360° |
| 2026-05-06 07:59 | 59.29365 | 24.79461 | 27562 ft | 492 kts | 0° |
| 2026-05-06 07:59 | 59.32739 | 24.80707 | 26285 ft | 495 kts | 1° |
| 2026-05-06 08:00 | 59.36138 | 24.81963 | 25084 ft | 497 kts | 1° |
| 2026-05-06 08:00 | 59.39528 | 24.83252 | 24055 ft | 498 kts | 4° |
| 2026-05-06 08:00 | 59.42862 | 24.85237 | 22845 ft | 503 kts | 14° |
| 2026-05-06 08:00 | 59.46089 | 24.87896 | 21659 ft | 502 kts | 16° |
| 2026-05-06 08:01 | 59.49275 | 24.90559 | 20838 ft | 492 kts | 16° |
| 2026-05-06 08:01 | 59.52416 | 24.93186 | 19937 ft | 486 kts | 16° |
| 2026-05-06 08:01 | 59.55510 | 24.95776 | 19084 ft | 481 kts | 16° |
| 2026-05-06 08:01 | 59.58556 | 24.98326 | 18221 ft | 474 kts | 16° |
| 2026-05-06 08:02 | 59.61567 | 25.00840 | 17398 ft | 464 kts | 16° |
| 2026-05-06 08:02 | 59.64512 | 25.03307 | 16576 ft | 455 kts | 16° |
| 2026-05-06 08:02 | 59.67396 | 25.05733 | 15867 ft | 445 kts | 16° |
| 2026-05-06 08:02 | 59.70217 | 25.08110 | 15182 ft | 437 kts | 16° |
| 2026-05-06 08:03 | 59.72976 | 25.10429 | 14723 ft | 425 kts | 16° |
| 2026-05-06 08:03 | 59.75632 | 25.12673 | 14597 ft | 405 kts | 16° |
| 2026-05-06 08:03 | 59.78163 | 25.14825 | 14473 ft | 386 kts | 15° |
| 2026-05-06 08:03 | 59.80575 | 25.16882 | 14397 ft | 368 kts | 15° |
| 2026-05-06 08:04 | 59.82878 | 25.18842 | 14272 ft | 352 kts | 15° |
| 2026-05-06 08:04 | 59.85083 | 25.20715 | 14150 ft | 338 kts | 14° |
| 2026-05-06 08:04 | 59.87203 | 25.22513 | 13982 ft | 326 kts | 14° |
| 2026-05-06 08:04 | 59.89290 | 25.24096 | 13713 ft | 312 kts | 6° |
| 2026-05-06 08:05 | 59.91376 | 25.24830 | 13553 ft | 302 kts | 355° |
| 2026-05-06 08:05 | 59.93446 | 25.24775 | 13055 ft | 294 kts | 347° |
| 2026-05-06 08:05 | 59.95481 | 25.24466 | 12641 ft | 292 kts | 347° |
| 2026-05-06 08:05 | 59.97501 | 25.24171 | 12229 ft | 290 kts | 349° |
| 2026-05-06 08:06 | 59.99508 | 25.24043 | 11915 ft | 290 kts | 357° |
| 2026-05-06 08:06 | 60.01513 | 25.24384 | 11655 ft | 288 kts | 359° |
| 2026-05-06 08:06 | 60.03509 | 25.24751 | 11386 ft | 287 kts | 359° |
| 2026-05-06 08:06 | 60.05492 | 25.25124 | 11117 ft | 286 kts | 360° |
| 2026-05-06 08:07 | 60.07468 | 25.25500 | 10869 ft | 285 kts | 0° |
| 2026-05-06 08:07 | 60.09434 | 25.25875 | 10614 ft | 283 kts | 0° |
| 2026-05-06 08:07 | 60.11388 | 25.26245 | 10359 ft | 280 kts | 1° |
| 2026-05-06 08:07 | 60.13324 | 25.26610 | 9941 ft | 280 kts | 1° |
| 2026-05-06 08:08 | 60.15268 | 25.26972 | 9521 ft | 279 kts | 2° |
| 2026-05-06 08:08 | 60.17213 | 25.27332 | 9007 ft | 280 kts | 2° |
| 2026-05-06 08:08 | 60.19131 | 25.27696 | 8659 ft | 276 kts | 2° |
| 2026-05-06 08:08 | 60.20393 | 25.27938 | 8380 ft | 275 kts | 2° |
| 2026-05-06 08:09 | 60.22296 | 25.28297 | 7951 ft | 274 kts | 2° |
| 2026-05-06 08:09 | 60.24192 | 25.28647 | 7547 ft | 272 kts | 2° |
| 2026-05-06 08:09 | 60.26075 | 25.28997 | 7156 ft | 271 kts | 2° |
| 2026-05-06 08:09 | 60.27950 | 25.29347 | 6782 ft | 270 kts | 3° |
| 2026-05-06 08:10 | 60.29797 | 25.29695 | 6178 ft | 265 kts | 3° |
| 2026-05-06 08:10 | 60.31625 | 25.30044 | 5476 ft | 260 kts | 3° |
| 2026-05-06 08:10 | 60.33344 | 25.30377 | 5266 ft | 238 kts | 3° |
| 2026-05-06 08:10 | 60.34959 | 25.30688 | 4812 ft | 230 kts | 2° |
| 2026-05-06 08:11 | 60.36536 | 25.30988 | 4298 ft | 225 kts | 3° |
| 2026-05-06 08:11 | 60.38048 | 25.31224 | 4152 ft | 212 kts | 355° |
| 2026-05-06 08:11 | 60.39481 | 25.30986 | 4004 ft | 202 kts | 351° |
| 2026-05-06 08:11 | 60.40888 | 25.30646 | 3566 ft | 207 kts | 350° |
| 2026-05-06 08:12 | 60.42352 | 25.30262 | 3063 ft | 215 kts | 349° |
| 2026-05-06 08:12 | 60.43779 | 25.29896 | 2995 ft | 198 kts | 348° |
| 2026-05-06 08:12 | 60.44962 | 25.28877 | 3002 ft | 181 kts | 311° |
| 2026-05-06 08:12 | 60.45429 | 25.26627 | 3011 ft | 177 kts | 271° |
| 2026-05-06 08:13 | 60.44979 | 25.24327 | 3014 ft | 182 kts | 232° |
| 2026-05-06 08:13 | 60.44112 | 25.22431 | 3009 ft | 184 kts | 231° |
| 2026-05-06 08:13 | 60.43248 | 25.20502 | 3023 ft | 185 kts | 231° |
| 2026-05-06 08:13 | 60.42379 | 25.18562 | 2896 ft | 187 kts | 231° |
| 2026-05-06 08:14 | 60.41507 | 25.16620 | 2683 ft | 186 kts | 231° |
| 2026-05-06 08:14 | 60.40635 | 25.14683 | 2454 ft | 184 kts | 231° |
| 2026-05-06 08:14 | 60.39789 | 25.12806 | 2190 ft | 176 kts | 231° |
| 2026-05-06 08:14 | 60.39004 | 25.11062 | 1948 ft | 159 kts | 231° |
| 2026-05-06 08:15 | 60.38302 | 25.09503 | 1743 ft | 144 kts | 232° |
| 2026-05-06 08:15 | 60.37646 | 25.08039 | 1486 ft | 138 kts | 232° |
| 2026-05-06 08:15 | 60.37009 | 25.06607 | 1303 ft | 135 kts | 231° |
| 2026-05-06 08:15 | 60.36382 | 25.05200 | 1119 ft | 133 kts | 230° |
| 2026-05-06 08:16 | 60.35745 | 25.03825 | 948 ft | 134 kts | 230° |
| 2026-05-06 08:16 | 60.35121 | 25.02433 | 813 ft | 133 kts | 231° |
| 2026-05-06 08:16 | 60.34487 | 25.01071 | 621 ft | 134 kts | 230° |
| 2026-05-06 08:16 | 60.33857 | 24.99663 | 426 ft | 135 kts | 230° |
| 2026-05-06 08:17 | 60.33226 | 24.98257 | 254 ft | 136 kts | 230° |
| 2026-05-06 08:17 | 60.32609 | 24.96883 | 175 ft | 120 kts | 226° |
| 2026-05-06 08:17 | 60.32226 | 24.96059 | 178 ft | 45 kts | 226° |
| 2026-05-06 08:17 | 60.32046 | 24.95730 | 174 ft | 32 kts | 210° |
| 2026-05-06 08:18 | 60.31885 | 24.95606 | 171 ft | 16 kts | 195° |
| 2026-05-06 08:18 | 60.31818 | 24.95664 | 170 ft | 11 kts | 94° |
| 2026-05-06 08:18 | 60.31863 | 24.95815 | 169 ft | 15 kts | 45° |
| 2026-05-06 08:18 | 60.31924 | 24.95992 | 168 ft | 16 kts | 88° |
| 2026-05-06 08:19 | 60.31876 | 24.96129 | 167 ft | 13 kts | 129° |
| 2026-05-06 08:19 | 60.31852 | 24.96269 | 167 ft | 8 kts | 97° |
| 2026-05-06 08:19 | 60.31826 | 24.96348 | 167 ft | 2 kts | 137° |
| 2026-05-06 08:19 | 60.31810 | 24.96375 | 167 ft | 3 kts | 138° |
| 2026-05-06 08:20 | 60.31804 | 24.96387 | 167 ft | 0 kts | 138° |